createdAt,value
2023-05-21T00:00:30.756Z,46.26
2023-05-21T00:01:30.785Z,47.71
2023-05-21T00:02:30.846Z,46.44
2023-05-21T00:03:30.949Z,47.74
2023-05-21T00:04:30.858Z,48.56
2023-05-21T00:05:30.886Z,48.11
2023-05-21T00:06:30.977Z,48.81
2023-05-21T00:07:30.943Z,50.14
2023-05-21T00:08:31.015Z,47.00
2023-05-21T00:09:31.880Z,48.05
2023-05-21T00:10:31.086Z,48.14
2023-05-21T00:11:31.110Z,49.09
2023-05-21T00:12:31.132Z,48.85
2023-05-21T00:13:31.201Z,46.76
2023-05-21T00:14:31.257Z,49.56
2023-05-21T00:15:31.287Z,48.50
2023-05-21T00:16:31.356Z,48.09
2023-05-21T00:17:31.407Z,44.34
2023-05-21T00:18:31.359Z,46.84
2023-05-21T00:19:31.504Z,44.80
2023-05-21T00:20:31.499Z,47.37
2023-05-21T00:21:31.483Z,48.12
2023-05-21T00:22:31.536Z,48.21
2023-05-21T00:23:31.565Z,47.43
2023-05-21T00:24:31.608Z,46.93
2023-05-21T00:25:31.696Z,51.08
2023-05-21T00:26:31.690Z,48.72
2023-05-21T00:27:31.743Z,44.14
2023-05-21T00:28:31.795Z,48.25
2023-05-21T00:29:31.816Z,45.58
2023-05-21T00:30:31.893Z,46.32
2023-05-21T00:31:31.906Z,48.70
2023-05-21T00:32:31.994Z,50.49
2023-05-21T00:33:31.976Z,48.14
2023-05-21T00:34:31.988Z,47.15
2023-05-21T00:35:32.065Z,48.22
2023-05-21T00:36:32.118Z,47.85
2023-05-21T00:37:32.136Z,46.13
2023-05-21T00:38:32.178Z,47.88
2023-05-21T00:39:32.247Z,46.19
2023-05-21T00:40:32.300Z,45.97
2023-05-21T00:41:32.341Z,48.86
2023-05-21T00:42:32.408Z,48.49
2023-05-21T00:43:32.431Z,49.71
2023-05-21T00:44:32.450Z,45.65
2023-05-21T00:45:32.565Z,45.88
2023-05-21T00:46:32.603Z,46.43
2023-05-21T00:47:32.695Z,50.15
2023-05-21T00:48:32.673Z,46.88
2023-05-21T00:49:32.718Z,47.12
2023-05-21T00:50:32.778Z,46.98
2023-05-21T00:51:32.830Z,46.58
2023-05-21T00:52:32.905Z,46.58
2023-05-21T00:53:32.915Z,44.29
2023-05-21T00:54:32.954Z,44.95
2023-05-21T00:55:33.017Z,46.88
2023-05-21T00:56:33.073Z,46.30
2023-05-21T00:57:33.073Z,45.41
2023-05-21T00:58:33.179Z,46.30
2023-05-21T00:59:33.176Z,46.69
2023-05-21T01:00:33.199Z,43.42
2023-05-21T01:01:33.327Z,43.43
2023-05-21T01:02:33.349Z,46.07
2023-05-21T01:03:33.417Z,42.62
2023-05-21T01:04:33.427Z,45.55
2023-05-21T01:05:33.629Z,44.98
2023-05-21T01:06:33.534Z,43.76
2023-05-21T01:07:33.626Z,47.48
2023-05-21T01:08:33.655Z,49.99
2023-05-21T01:09:34.370Z,45.27
2023-05-21T01:10:33.735Z,44.74
2023-05-21T01:11:33.788Z,45.28
2023-05-21T01:12:33.816Z,43.79
2023-05-21T01:13:33.904Z,41.95
2023-05-21T01:14:33.905Z,44.58
2023-05-21T01:15:34.134Z,46.42
2023-05-21T01:16:34.050Z,47.64
2023-05-21T01:17:34.313Z,45.20
2023-05-21T01:18:34.149Z,45.98
2023-05-21T01:19:34.217Z,49.80
2023-05-21T01:20:34.227Z,46.03
2023-05-21T01:21:34.312Z,47.01
2023-05-21T01:22:34.387Z,46.99
2023-05-21T01:23:34.423Z,45.24
2023-05-21T01:24:34.486Z,44.19
2023-05-21T01:25:34.689Z,48.33
2023-05-21T01:26:34.555Z,43.62
2023-05-21T01:27:34.609Z,43.94
2023-05-21T01:28:34.657Z,46.08
2023-05-21T01:29:34.714Z,43.73
2023-05-21T01:30:34.798Z,46.85
2023-05-21T01:31:34.819Z,42.98
2023-05-21T01:32:34.961Z,44.41
2023-05-21T01:33:35.050Z,43.78
2023-05-21T01:34:35.030Z,42.78
2023-05-21T01:35:35.220Z,44.06
2023-05-21T01:36:35.136Z,45.47
2023-05-21T01:37:35.162Z,43.06
2023-05-21T01:38:35.245Z,47.27
2023-05-21T01:39:35.341Z,47.31
2023-05-21T01:40:35.370Z,44.66
2023-05-21T01:41:35.361Z,47.80
2023-05-21T01:42:35.388Z,47.47
2023-05-21T01:43:35.463Z,50.29
2023-05-21T01:44:35.566Z,49.72
2023-05-21T01:45:35.762Z,44.93
2023-05-21T01:46:35.705Z,43.12
2023-05-21T01:47:35.686Z,44.22
2023-05-21T01:48:35.742Z,44.90
2023-05-21T01:49:35.831Z,46.99
2023-05-21T01:50:35.869Z,45.61
2023-05-21T01:51:35.891Z,43.79
2023-05-21T01:52:35.986Z,45.43
2023-05-21T01:53:36.010Z,49.13
2023-05-21T01:54:36.051Z,46.46
2023-05-21T01:55:36.448Z,49.44
2023-05-21T01:56:36.194Z,43.25
2023-05-21T01:57:36.251Z,48.08
2023-05-21T01:58:36.299Z,45.28
2023-05-21T01:59:36.306Z,47.99
2023-05-21T02:00:36.832Z,43.86
2023-05-21T02:01:36.406Z,44.90
2023-05-21T02:02:36.532Z,51.88
2023-05-21T02:03:36.688Z,51.43
2023-05-21T02:04:36.593Z,45.78
2023-05-21T02:05:36.786Z,47.33
2023-05-21T02:06:36.671Z,44.41
2023-05-21T02:07:36.769Z,44.95
2023-05-21T02:08:36.784Z,49.73
2023-05-21T02:09:36.830Z,47.37
2023-05-21T02:10:36.916Z,42.49
2023-05-21T02:11:37.005Z,43.80
2023-05-21T02:12:37.004Z,43.59
2023-05-21T02:13:37.037Z,48.68
2023-05-21T02:14:37.101Z,42.48
2023-05-21T02:15:37.265Z,41.60
2023-05-21T02:16:37.283Z,46.17
2023-05-21T02:17:37.278Z,47.47
2023-05-21T02:18:37.300Z,47.03
2023-05-21T02:19:37.410Z,43.01
2023-05-21T02:20:37.395Z,47.70
2023-05-21T02:21:37.584Z,45.17
2023-05-21T02:22:37.522Z,47.23
2023-05-21T02:23:37.592Z,41.45
2023-05-21T02:24:37.631Z,44.17
2023-05-21T02:25:37.830Z,50.66
2023-05-21T02:26:37.723Z,45.91
2023-05-21T02:27:37.807Z,47.99
2023-05-21T02:28:37.820Z,47.31
2023-05-21T02:29:37.879Z,42.13
2023-05-21T02:30:37.968Z,46.39
2023-05-21T02:31:37.974Z,43.57
2023-05-21T02:32:38.046Z,46.21
2023-05-21T02:33:38.103Z,49.26
2023-05-21T02:34:38.124Z,42.06
2023-05-21T02:35:38.331Z,45.55
2023-05-21T02:36:38.243Z,41.69
2023-05-21T02:37:38.314Z,44.44
2023-05-21T02:38:38.373Z,41.78
2023-05-21T02:39:38.419Z,46.16
2023-05-21T02:40:38.424Z,47.03
2023-05-21T02:41:38.498Z,52.41
2023-05-21T02:42:38.545Z,43.79
2023-05-21T02:43:38.618Z,41.74
2023-05-21T02:44:38.663Z,46.25
2023-05-21T02:45:38.857Z,47.26
2023-05-21T02:46:38.791Z,45.38
2023-05-21T02:47:38.964Z,41.87
2023-05-21T02:48:38.901Z,51.31
2023-05-21T02:49:38.902Z,52.72
2023-05-21T02:50:38.959Z,43.69
2023-05-21T02:51:39.033Z,47.54
2023-05-21T02:52:39.061Z,45.75
2023-05-21T02:53:39.136Z,46.82
2023-05-21T02:54:39.167Z,41.66
2023-05-21T02:55:39.383Z,44.84
2023-05-21T02:56:39.291Z,43.31
2023-05-21T02:57:39.307Z,48.42
2023-05-21T02:58:39.414Z,45.06
2023-05-21T02:59:39.472Z,42.83
2023-05-21T03:00:39.529Z,53.43
2023-05-21T03:01:39.632Z,47.18
2023-05-21T03:02:39.732Z,46.92
2023-05-21T03:03:39.708Z,51.32
2023-05-21T03:04:39.711Z,40.45
2023-05-21T03:05:39.820Z,43.41
2023-05-21T03:06:39.881Z,45.66
2023-05-21T03:07:39.946Z,49.72
2023-05-21T03:08:39.998Z,43.37
2023-05-21T03:09:40.029Z,41.41
2023-05-21T03:10:40.063Z,50.77
2023-05-21T03:11:40.089Z,46.68
2023-05-21T03:12:40.176Z,42.81
2023-05-21T03:13:40.233Z,47.09
2023-05-21T03:14:40.291Z,46.45
2023-05-21T03:15:40.329Z,44.56
2023-05-21T03:16:40.446Z,50.39
2023-05-21T03:17:40.511Z,48.66
2023-05-21T03:18:40.515Z,49.86
2023-05-21T03:19:40.584Z,45.96
2023-05-21T03:20:40.655Z,41.69
2023-05-21T03:21:40.695Z,54.45
2023-05-21T03:22:40.763Z,54.38
2023-05-21T03:23:40.831Z,49.78
2023-05-21T03:24:40.868Z,48.77
2023-05-21T03:25:40.903Z,50.51
2023-05-21T03:26:41.002Z,45.86
2023-05-21T03:27:41.101Z,50.37
2023-05-21T03:28:41.112Z,52.82
2023-05-21T03:29:41.220Z,43.37
2023-05-21T03:30:41.223Z,47.49
2023-05-21T03:31:41.318Z,52.42
2023-05-21T03:32:41.461Z,44.76
2023-05-21T03:33:41.456Z,46.10
2023-05-21T03:34:41.454Z,47.76
2023-05-21T03:35:41.527Z,44.07
2023-05-21T03:36:41.574Z,44.28
2023-05-21T03:37:41.673Z,53.73
2023-05-21T03:38:41.688Z,48.87
2023-05-21T03:39:41.783Z,52.73
2023-05-21T03:40:41.799Z,46.98
2023-05-21T03:41:41.913Z,47.54
2023-05-21T03:42:41.973Z,40.67
2023-05-21T03:43:42.003Z,47.71
2023-05-21T03:44:42.034Z,46.82
2023-05-21T03:45:44.307Z,47.25
2023-05-21T03:46:42.410Z,50.57
2023-05-21T03:47:42.386Z,50.33
2023-05-21T03:48:42.405Z,42.96
2023-05-21T03:49:42.408Z,48.91
2023-05-21T03:50:42.472Z,55.19
2023-05-21T03:51:42.593Z,41.80
2023-05-21T03:52:42.668Z,44.61
2023-05-21T03:53:42.712Z,41.14
2023-05-21T03:54:42.764Z,52.10
2023-05-21T03:55:42.830Z,41.28
2023-05-21T03:56:42.878Z,42.48
2023-05-21T03:57:42.908Z,44.78
2023-05-21T03:58:42.980Z,49.11
2023-05-21T03:59:43.057Z,43.76
2023-05-21T04:00:43.120Z,47.74
2023-05-21T04:01:43.128Z,47.19
2023-05-21T04:02:43.540Z,46.26
2023-05-21T04:03:43.411Z,48.91
2023-05-21T04:04:43.362Z,47.52
2023-05-21T04:05:43.351Z,47.45
2023-05-21T04:06:43.414Z,46.23
2023-05-21T04:07:43.448Z,44.62
2023-05-21T04:08:43.542Z,48.07
2023-05-21T04:09:43.583Z,50.60
2023-05-21T04:10:43.652Z,44.96
2023-05-21T04:11:43.692Z,45.47
2023-05-21T04:12:43.761Z,50.41
2023-05-21T04:13:43.804Z,53.61
2023-05-21T04:14:43.820Z,45.97
2023-05-21T04:15:43.936Z,46.57
2023-05-21T04:16:43.937Z,52.60
2023-05-21T04:17:44.038Z,44.17
2023-05-21T04:18:45.545Z,42.08
2023-05-21T04:19:44.124Z,56.11
2023-05-21T04:20:44.162Z,50.44
2023-05-21T04:21:44.214Z,41.65
2023-05-21T04:22:44.278Z,48.20
2023-05-21T04:23:44.403Z,44.96
2023-05-21T04:24:44.392Z,41.34
2023-05-21T04:25:44.476Z,46.09
2023-05-21T04:26:44.564Z,46.61
2023-05-21T04:27:44.625Z,45.20
2023-05-21T04:28:44.632Z,50.10
2023-05-21T04:29:44.736Z,50.95
2023-05-21T04:30:44.763Z,47.45
2023-05-21T04:31:44.876Z,45.89
2023-05-21T04:32:44.925Z,46.93
2023-05-21T04:33:44.957Z,45.88
2023-05-21T04:34:45.031Z,42.68
2023-05-21T04:35:45.087Z,45.02
2023-05-21T04:36:45.144Z,49.30
2023-05-21T04:37:45.200Z,43.18
2023-05-21T04:38:45.305Z,52.86
2023-05-21T04:39:45.317Z,53.06
2023-05-21T04:40:45.368Z,37.67
2023-05-21T04:41:45.444Z,43.57
2023-05-21T04:42:45.541Z,41.82
2023-05-21T04:43:45.593Z,46.35
2023-05-21T04:44:45.656Z,46.08
2023-05-21T04:45:45.706Z,51.15
2023-05-21T04:46:45.797Z,43.36
2023-05-21T04:47:45.818Z,48.36
2023-05-21T04:48:45.848Z,42.16
2023-05-21T04:49:45.950Z,46.63
2023-05-21T04:50:45.981Z,43.19
2023-05-21T04:51:46.021Z,48.91
2023-05-21T04:52:46.083Z,44.19
2023-05-21T04:53:46.136Z,41.10
2023-05-21T04:54:46.185Z,44.95
2023-05-21T04:55:46.249Z,45.61
2023-05-21T04:56:46.306Z,43.22
2023-05-21T04:57:46.344Z,40.56
2023-05-21T04:58:46.446Z,48.46
2023-05-21T04:59:46.437Z,42.10
2023-05-21T05:00:46.505Z,44.02
2023-05-21T05:01:46.551Z,40.51
2023-05-21T05:02:46.680Z,44.64
2023-05-21T05:03:46.644Z,40.19
2023-05-21T05:04:46.676Z,41.93
2023-05-21T05:05:46.729Z,41.37
2023-05-21T05:06:46.793Z,41.75
2023-05-21T05:07:46.843Z,45.13
2023-05-21T05:08:46.907Z,44.04
2023-05-21T05:09:46.929Z,39.91
2023-05-21T05:10:46.980Z,41.87
2023-05-21T05:11:47.062Z,40.82
2023-05-21T05:12:47.113Z,43.05
2023-05-21T05:13:47.146Z,39.95
2023-05-21T05:14:47.206Z,40.97
2023-05-21T05:15:49.603Z,38.88
2023-05-21T05:16:47.332Z,42.83
2023-05-21T05:17:47.261Z,42.54
2023-05-21T05:18:47.264Z,42.82
2023-05-21T05:19:47.228Z,43.40
2023-05-21T05:20:47.234Z,45.16
2023-05-21T05:21:47.203Z,44.65
2023-05-21T05:22:47.206Z,46.00
2023-05-21T05:23:47.204Z,43.37
2023-05-21T05:24:47.222Z,42.34
2023-05-21T05:25:47.238Z,45.48
2023-05-21T05:26:47.180Z,45.91
2023-05-21T05:27:47.190Z,39.80
2023-05-21T05:28:47.200Z,44.16
2023-05-21T05:29:47.149Z,41.50
2023-05-21T05:30:47.169Z,44.66
2023-05-21T05:31:47.115Z,42.80
2023-05-21T05:32:47.257Z,42.61
2023-05-21T05:33:47.179Z,44.66
2023-05-21T05:34:47.106Z,44.42
2023-05-21T05:35:47.149Z,41.90
2023-05-21T05:36:47.140Z,43.91
2023-05-21T05:37:47.145Z,46.89
2023-05-21T05:38:47.109Z,43.36
2023-05-21T05:39:47.106Z,44.88
2023-05-21T05:40:47.084Z,45.27
2023-05-21T05:41:47.100Z,46.17
2023-05-21T05:42:47.091Z,46.14
2023-05-21T05:43:47.068Z,43.06
2023-05-21T05:44:47.124Z,46.90
2023-05-21T05:45:47.049Z,43.02
2023-05-21T05:46:47.110Z,44.98
2023-05-21T05:47:47.116Z,47.29
2023-05-21T05:48:47.077Z,47.76
2023-05-21T05:49:47.075Z,43.54
2023-05-21T05:50:47.149Z,44.92
2023-05-21T05:51:47.014Z,45.40
2023-05-21T05:52:47.088Z,45.70
2023-05-21T05:53:47.025Z,44.67
2023-05-21T05:54:47.004Z,46.14
2023-05-21T05:55:46.979Z,46.71
2023-05-21T05:56:46.979Z,46.24
2023-05-21T05:57:47.026Z,46.08
2023-05-21T05:58:47.036Z,43.46
2023-05-21T05:59:46.999Z,42.34
2023-05-21T06:00:46.945Z,43.43
2023-05-21T06:01:46.949Z,47.29
2023-05-21T06:02:47.022Z,45.40
2023-05-21T06:03:47.021Z,45.34
2023-05-21T06:04:46.914Z,46.33
2023-05-21T06:05:46.977Z,46.64
2023-05-21T06:06:46.950Z,48.87
2023-05-21T06:07:46.923Z,46.25
2023-05-21T06:08:46.923Z,45.01
2023-05-21T06:09:46.927Z,46.66
2023-05-21T06:10:46.919Z,48.05
2023-05-21T06:11:46.904Z,47.16
2023-05-21T06:12:46.923Z,49.36
2023-05-21T06:13:46.931Z,47.98
2023-05-21T06:14:46.934Z,48.89
2023-05-21T06:15:46.968Z,49.36
2023-05-21T06:16:46.929Z,47.84
2023-05-21T06:17:47.021Z,49.35
2023-05-21T06:18:47.012Z,45.92
2023-05-21T06:19:46.980Z,51.41
2023-05-21T06:20:47.074Z,49.91
2023-05-21T06:21:47.038Z,50.24
2023-05-21T06:22:47.093Z,48.98
2023-05-21T06:23:47.103Z,50.90
2023-05-21T06:24:47.163Z,48.85
2023-05-21T06:25:47.113Z,50.29
2023-05-21T06:26:47.324Z,50.45
2023-05-21T06:27:47.239Z,47.80
2023-05-21T06:28:47.223Z,51.05
2023-05-21T06:29:47.330Z,50.08
2023-05-21T06:30:47.259Z,49.94
2023-05-21T06:31:47.350Z,52.57
2023-05-21T06:32:47.515Z,50.59
2023-05-21T06:33:47.522Z,50.40
2023-05-21T06:34:47.425Z,49.98
2023-05-21T06:35:47.418Z,49.74
2023-05-21T06:36:47.417Z,53.38
2023-05-21T06:37:47.412Z,52.85
2023-05-21T06:38:47.406Z,53.97
2023-05-21T06:39:47.402Z,49.46
2023-05-21T06:40:47.410Z,50.78
2023-05-21T06:41:47.461Z,51.61
2023-05-21T06:42:47.556Z,52.17
2023-05-21T06:43:47.483Z,52.94
2023-05-21T06:44:47.490Z,52.22
2023-05-21T06:45:47.512Z,51.57
2023-05-21T06:46:47.496Z,54.09
2023-05-21T06:47:47.601Z,52.72
2023-05-21T06:48:47.532Z,54.81
2023-05-21T06:49:47.575Z,51.06
2023-05-21T06:50:47.572Z,51.22
2023-05-21T06:51:47.618Z,54.39
2023-05-21T06:52:47.631Z,54.46
2023-05-21T06:53:47.687Z,51.45
2023-05-21T06:54:47.715Z,53.13
2023-05-21T06:55:47.808Z,52.70
2023-05-21T06:56:47.831Z,54.16
2023-05-21T06:57:47.847Z,55.86
2023-05-21T06:58:47.951Z,52.87
2023-05-21T06:59:47.944Z,52.08
2023-05-21T07:00:47.977Z,57.21
2023-05-21T07:01:48.077Z,52.42
2023-05-21T07:02:48.152Z,56.09
2023-05-21T07:03:48.255Z,53.10
2023-05-21T07:04:48.225Z,52.88
2023-05-21T07:05:48.293Z,57.71
2023-05-21T07:06:48.308Z,49.95
2023-05-21T07:07:48.428Z,51.66
2023-05-21T07:08:48.457Z,55.82
2023-05-21T07:09:48.533Z,52.24
2023-05-21T07:10:48.547Z,53.38
2023-05-21T07:11:48.607Z,53.22
2023-05-21T07:12:48.718Z,52.01
2023-05-21T07:13:48.701Z,53.58
2023-05-21T07:14:48.730Z,56.64
2023-05-21T07:15:48.805Z,56.54
2023-05-21T07:16:48.935Z,54.06
2023-05-21T07:17:48.930Z,53.11
2023-05-21T07:18:48.956Z,56.63
2023-05-21T07:19:49.009Z,55.82
2023-05-21T07:20:49.055Z,53.00
2023-05-21T07:21:49.121Z,49.79
2023-05-21T07:22:49.131Z,57.92
2023-05-21T07:23:49.236Z,55.28
2023-05-21T07:24:49.240Z,52.59
2023-05-21T07:25:49.252Z,56.42
2023-05-21T07:26:49.297Z,57.22
2023-05-21T07:27:49.360Z,56.64
2023-05-21T07:28:49.618Z,55.47
2023-05-21T07:29:49.416Z,56.84
2023-05-21T07:30:49.543Z,55.86
2023-05-21T07:31:49.486Z,55.60
2023-05-21T07:32:49.585Z,55.65
2023-05-21T07:33:49.546Z,59.45
2023-05-21T07:34:49.621Z,55.08
2023-05-21T07:35:49.627Z,59.54
2023-05-21T07:36:49.629Z,58.33
2023-05-21T07:37:49.707Z,57.22
2023-05-21T07:38:49.650Z,57.05
2023-05-21T07:39:49.681Z,57.47
2023-05-21T07:40:49.792Z,60.02
2023-05-21T07:41:49.716Z,60.27
2023-05-21T07:42:49.694Z,60.45
2023-05-21T07:43:49.912Z,59.62
2023-05-21T07:44:49.696Z,57.72
2023-05-21T07:45:49.863Z,55.94
2023-05-21T07:46:49.832Z,59.28
2023-05-21T07:47:49.826Z,59.28
2023-05-21T07:48:49.751Z,57.00
2023-05-21T07:49:49.764Z,58.13
2023-05-21T07:50:49.752Z,56.37
2023-05-21T07:51:49.771Z,56.96
2023-05-21T07:52:49.811Z,61.26
2023-05-21T07:53:49.782Z,60.19
2023-05-21T07:54:49.797Z,60.60
2023-05-21T07:55:49.788Z,57.00
2023-05-21T07:56:49.826Z,59.46
2023-05-21T07:57:49.882Z,60.65
2023-05-21T07:58:49.915Z,61.79
2023-05-21T07:59:49.990Z,61.61
2023-05-21T08:00:50.053Z,61.17
2023-05-21T08:01:50.161Z,59.66
2023-05-21T08:02:50.321Z,60.38
2023-05-21T08:03:50.407Z,58.76
2023-05-21T08:04:50.399Z,62.75
2023-05-21T08:05:50.340Z,62.11
2023-05-21T08:06:50.400Z,58.98
2023-05-21T08:07:50.512Z,61.02
2023-05-21T08:08:50.570Z,60.19
2023-05-21T08:09:50.629Z,61.61
2023-05-21T08:10:50.685Z,58.93
2023-05-21T08:11:50.753Z,61.78
2023-05-21T08:12:50.799Z,60.80
2023-05-21T08:13:50.834Z,60.87
2023-05-21T08:14:50.869Z,63.26
2023-05-21T08:15:52.906Z,60.81
2023-05-21T08:16:51.091Z,59.48
2023-05-21T08:17:51.098Z,58.24
2023-05-21T08:18:51.156Z,63.67
2023-05-21T08:19:51.162Z,63.22
2023-05-21T08:20:51.193Z,62.19
2023-05-21T08:21:52.813Z,62.82
2023-05-21T08:22:51.283Z,62.37
2023-05-21T08:23:51.290Z,64.12
2023-05-21T08:24:51.345Z,63.30
2023-05-21T08:25:51.347Z,64.11
2023-05-21T08:26:51.363Z,63.73
2023-05-21T08:27:52.447Z,61.61
2023-05-21T08:28:51.428Z,63.99
2023-05-21T08:29:51.431Z,62.67
2023-05-21T08:30:51.448Z,63.19
2023-05-21T08:31:51.496Z,62.21
2023-05-21T08:32:51.516Z,63.53
2023-05-21T08:33:51.465Z,64.51
2023-05-21T08:34:51.458Z,64.33
2023-05-21T08:35:51.475Z,64.05
2023-05-21T08:36:51.469Z,63.34
2023-05-21T08:37:51.489Z,66.45
2023-05-21T08:38:51.491Z,62.49
2023-05-21T08:39:51.500Z,64.10
2023-05-21T08:40:51.467Z,63.07
2023-05-21T08:41:51.520Z,62.65
2023-05-21T08:42:51.554Z,64.63
2023-05-21T08:43:53.498Z,66.15
2023-05-21T08:44:51.465Z,69.57
2023-05-21T08:45:51.482Z,67.57
2023-05-21T08:46:51.475Z,65.66
2023-05-21T08:47:51.506Z,65.34
2023-05-21T08:48:51.473Z,64.72
2023-05-21T08:49:51.469Z,66.04
2023-05-21T08:50:51.479Z,65.15
2023-05-21T08:51:51.431Z,67.52
2023-05-21T08:52:51.442Z,65.34
2023-05-21T08:53:51.434Z,67.92
2023-05-21T08:54:51.483Z,69.27
2023-05-21T08:55:51.735Z,65.10
2023-05-21T08:56:51.408Z,66.84
2023-05-21T08:57:51.376Z,67.70
2023-05-21T08:58:51.419Z,65.44
2023-05-21T08:59:51.383Z,66.20
2023-05-21T09:00:51.429Z,66.66
2023-05-21T09:01:51.410Z,63.93
2023-05-21T09:02:51.430Z,65.71
2023-05-21T09:03:51.385Z,65.37
2023-05-21T09:04:51.367Z,65.14
2023-05-21T09:05:51.375Z,65.08
2023-05-21T09:06:51.376Z,65.77
2023-05-21T09:07:52.505Z,66.86
2023-05-21T09:08:51.403Z,68.05
2023-05-21T09:09:51.335Z,66.55
2023-05-21T09:10:51.352Z,65.54
2023-05-21T09:11:51.332Z,64.97
2023-05-21T09:12:51.325Z,67.07
2023-05-21T09:13:51.280Z,66.96
2023-05-21T09:14:51.342Z,66.00
2023-05-21T09:15:51.336Z,65.58
2023-05-21T09:16:51.302Z,65.12
2023-05-21T09:17:51.322Z,66.52
2023-05-21T09:18:51.324Z,68.10
2023-05-21T09:19:51.261Z,65.52
2023-05-21T09:20:51.272Z,66.45
2023-05-21T09:21:51.267Z,66.10
2023-05-21T09:22:51.279Z,67.89
2023-05-21T09:23:51.294Z,65.95
2023-05-21T09:24:51.246Z,65.57
2023-05-21T09:25:51.239Z,65.68
2023-05-21T09:26:51.218Z,67.19
2023-05-21T09:27:51.211Z,67.26
2023-05-21T09:28:51.332Z,67.44
2023-05-21T09:29:51.329Z,63.94
2023-05-21T09:30:51.387Z,67.89
2023-05-21T09:31:51.570Z,66.26
2023-05-21T09:32:51.588Z,66.70
2023-05-21T09:33:51.558Z,66.74
2023-05-21T09:34:51.607Z,64.36
2023-05-21T09:35:51.685Z,68.54
2023-05-21T09:36:51.779Z,68.70
2023-05-21T09:37:51.856Z,67.56
2023-05-21T09:38:52.088Z,67.24
2023-05-21T09:39:51.946Z,69.36
2023-05-21T09:40:52.002Z,66.63
2023-05-21T09:41:52.090Z,67.65
2023-05-21T09:42:52.145Z,67.12
2023-05-21T09:43:52.190Z,65.12
2023-05-21T09:44:52.259Z,69.34
2023-05-21T09:45:52.475Z,68.37
2023-05-21T09:46:52.510Z,68.10
2023-05-21T09:47:52.550Z,66.70
2023-05-21T09:48:52.519Z,67.63
2023-05-21T09:49:52.594Z,67.87
2023-05-21T09:50:52.653Z,67.68
2023-05-21T09:51:52.718Z,68.59
2023-05-21T09:52:52.782Z,67.39
2023-05-21T09:53:52.849Z,69.78
2023-05-21T09:54:52.917Z,66.16
2023-05-21T09:55:52.921Z,65.57
2023-05-21T09:56:52.982Z,64.72
2023-05-21T09:57:53.101Z,65.01
2023-05-21T09:58:53.159Z,63.94
2023-05-21T09:59:53.161Z,64.74
2023-05-21T10:00:53.222Z,65.57
2023-05-21T10:01:53.342Z,65.85
2023-05-21T10:02:53.388Z,64.51
2023-05-21T10:03:53.429Z,65.12
2023-05-21T10:04:53.562Z,64.88
2023-05-21T10:05:53.526Z,65.62
2023-05-21T10:06:53.614Z,64.68
2023-05-21T10:07:53.583Z,63.66
2023-05-21T10:08:53.622Z,63.32
2023-05-21T10:09:53.738Z,65.08
2023-05-21T10:10:53.771Z,61.95
2023-05-21T10:11:53.837Z,64.61
2023-05-21T10:12:53.855Z,65.44
2023-05-21T10:13:53.899Z,64.12
2023-05-21T10:14:53.979Z,64.29
2023-05-21T10:15:54.031Z,64.90
2023-05-21T10:16:54.091Z,63.39
2023-05-21T10:17:54.219Z,67.37
2023-05-21T10:18:54.195Z,66.09
2023-05-21T10:19:54.199Z,63.50
2023-05-21T10:20:54.371Z,64.08
2023-05-21T10:21:54.265Z,65.65
2023-05-21T10:22:54.297Z,67.66
2023-05-21T10:23:54.385Z,67.66
2023-05-21T10:24:54.433Z,66.17
2023-05-21T10:25:54.469Z,66.13
2023-05-21T10:26:54.775Z,66.03
2023-05-21T10:27:54.514Z,66.91
2023-05-21T10:28:54.583Z,66.07
2023-05-21T10:29:54.613Z,67.04
2023-05-21T10:30:54.646Z,65.70
2023-05-21T10:31:54.654Z,65.00
2023-05-21T10:32:54.842Z,68.86
2023-05-21T10:33:54.775Z,66.13
2023-05-21T10:34:54.738Z,67.32
2023-05-21T10:35:54.760Z,66.30
2023-05-21T10:36:54.846Z,66.28
2023-05-21T10:37:54.932Z,64.80
2023-05-21T10:38:54.847Z,66.05
2023-05-21T10:39:54.900Z,67.40
2023-05-21T10:40:54.960Z,65.75
2023-05-21T10:41:56.392Z,65.99
2023-05-21T10:42:55.019Z,69.16
2023-05-21T10:43:54.974Z,68.75
2023-05-21T10:44:54.962Z,67.56
2023-05-21T10:45:55.013Z,67.16
2023-05-21T10:46:54.951Z,67.22
2023-05-21T10:47:54.998Z,67.35
2023-05-21T10:48:54.877Z,68.03
2023-05-21T10:49:54.933Z,67.08
2023-05-21T10:50:54.876Z,67.00
2023-05-21T10:51:55.049Z,67.46
2023-05-21T10:52:54.904Z,67.51
2023-05-21T10:53:54.882Z,67.12
2023-05-21T10:54:54.894Z,67.30
2023-05-21T10:55:54.886Z,66.71
2023-05-21T10:56:54.892Z,65.89
2023-05-21T10:57:54.900Z,68.40
2023-05-21T10:58:54.875Z,66.27
2023-05-21T10:59:54.863Z,66.59
2023-05-21T11:00:54.903Z,69.51
2023-05-21T11:01:54.843Z,66.18
2023-05-21T11:02:54.955Z,66.07
2023-05-21T11:03:54.878Z,66.99
2023-05-21T11:04:54.833Z,67.48
2023-05-21T11:05:54.841Z,67.73
2023-05-21T11:06:54.793Z,66.89
2023-05-21T11:07:54.851Z,68.88
2023-05-21T11:08:55.721Z,66.58
2023-05-21T11:09:54.825Z,68.07
2023-05-21T11:10:54.836Z,66.04
2023-05-21T11:11:54.854Z,68.48
2023-05-21T11:12:54.833Z,68.08
2023-05-21T11:13:55.648Z,67.02
2023-05-21T11:14:54.730Z,68.47
2023-05-21T11:15:54.797Z,67.41
2023-05-21T11:16:54.829Z,68.65
2023-05-21T11:17:54.797Z,67.64
2023-05-21T11:18:54.737Z,67.39
2023-05-21T11:19:54.728Z,68.55
2023-05-21T11:20:55.664Z,68.82
2023-05-21T11:21:54.715Z,69.61
2023-05-21T11:22:54.698Z,70.19
2023-05-21T11:23:54.703Z,68.62
2023-05-21T11:24:54.700Z,70.64
2023-05-21T11:25:54.699Z,70.12
2023-05-21T11:26:54.711Z,68.69
2023-05-21T11:27:54.775Z,70.62
2023-05-21T11:28:54.685Z,70.10
2023-05-21T11:29:54.669Z,72.12
2023-05-21T11:30:54.741Z,72.37
2023-05-21T11:31:54.650Z,70.73
2023-05-21T11:32:54.654Z,71.58
2023-05-21T11:33:54.636Z,71.91
2023-05-21T11:34:54.606Z,72.73
2023-05-21T11:35:54.631Z,70.69
2023-05-21T11:36:54.615Z,71.67
2023-05-21T11:37:54.584Z,72.07
2023-05-21T11:38:54.605Z,71.85
2023-05-21T11:39:54.622Z,71.01
2023-05-21T11:40:54.596Z,72.52
2023-05-21T11:41:54.589Z,71.32
2023-05-21T11:42:54.592Z,72.23
2023-05-21T11:43:54.560Z,72.90
2023-05-21T11:44:54.580Z,72.58
2023-05-21T11:45:54.544Z,70.91
2023-05-21T11:46:54.633Z,72.15
2023-05-21T11:47:54.619Z,72.95
2023-05-21T11:48:54.591Z,73.34
2023-05-21T11:49:54.531Z,73.21
2023-05-21T11:50:54.561Z,74.16
2023-05-21T11:51:54.533Z,72.55
2023-05-21T11:52:54.547Z,72.41
2023-05-21T11:53:54.529Z,74.18
2023-05-21T11:54:54.514Z,73.66
2023-05-21T11:55:54.508Z,74.68
2023-05-21T11:56:54.484Z,74.49
2023-05-21T11:57:54.487Z,75.33
2023-05-21T11:58:54.486Z,72.62
2023-05-21T11:59:54.470Z,72.90
2023-05-21T12:00:54.477Z,72.19
2023-05-21T12:01:54.465Z,73.08
2023-05-21T12:02:54.618Z,72.09
2023-05-21T12:03:54.475Z,72.32
2023-05-21T12:04:54.446Z,71.49
2023-05-21T12:05:54.471Z,72.19
2023-05-21T12:06:54.437Z,71.89
2023-05-21T12:07:54.436Z,71.17
2023-05-21T12:08:54.422Z,71.50
2023-05-21T12:09:54.379Z,71.24
2023-05-21T12:10:54.411Z,71.49
2023-05-21T12:11:54.432Z,72.69
2023-05-21T12:12:56.418Z,72.16
2023-05-21T12:13:54.400Z,72.70
2023-05-21T12:14:54.395Z,73.13
2023-05-21T12:15:54.393Z,73.27
2023-05-21T12:16:54.390Z,71.69
2023-05-21T12:17:54.479Z,72.57
2023-05-21T12:18:54.400Z,72.85
2023-05-21T12:19:54.335Z,71.97
2023-05-21T12:20:54.356Z,73.91
2023-05-21T12:21:54.336Z,75.61
2023-05-21T12:22:54.420Z,74.14
2023-05-21T12:23:54.329Z,72.92
2023-05-21T12:24:54.364Z,73.84
2023-05-21T12:25:54.318Z,73.36
2023-05-21T12:26:54.282Z,75.21
2023-05-21T12:27:54.262Z,74.69
2023-05-21T12:28:54.291Z,75.68
2023-05-21T12:29:54.596Z,75.46
2023-05-21T12:30:54.262Z,75.36
2023-05-21T12:31:54.345Z,75.85
2023-05-21T12:32:54.365Z,74.86
2023-05-21T12:33:54.273Z,76.24
2023-05-21T12:34:54.232Z,75.17
2023-05-21T12:35:54.437Z,76.28
2023-05-21T12:36:54.269Z,76.52
2023-05-21T12:37:54.213Z,76.49
2023-05-21T12:38:54.218Z,76.35
2023-05-21T12:39:54.222Z,75.73
2023-05-21T12:40:54.222Z,75.81
2023-05-21T12:41:54.202Z,75.41
2023-05-21T12:42:54.166Z,75.63
2023-05-21T12:43:54.180Z,77.59
2023-05-21T12:44:54.188Z,76.40
2023-05-21T12:45:54.176Z,77.94
2023-05-21T12:46:54.152Z,77.07
2023-05-21T12:47:54.204Z,77.19
2023-05-21T12:48:54.149Z,76.37
2023-05-21T12:49:55.307Z,77.29
2023-05-21T12:50:54.117Z,77.09
2023-05-21T12:51:54.131Z,76.52
2023-05-21T12:52:54.160Z,77.61